• Join FlightAware (Why Join?)
  • Login
  • US Flag 
05:16AM EDT


 

Airport Tracker/Info


-or-


 

Live Flight TrackerFlight Track Log ✈ QTR38 ✈ 15-Apr-2013 ✈ LIMC / MXP - OTBD

Flight Track Log - Related Links

Times and Time Zones

All times are in EDT time to prevent confusion due to time zone crossing. See the QTR38 flight status page for this flight to view local times or setup timezone preferences in your user account.

Time Position Orientation Groundspeed Altitude Reporting Facility
EDT Latitude Longitude Course Direction KTS MPH feet Rate Location/Type
04:23PM 45.6630 8.7090 334° Northwest 178 205 2,300  Level FlightAware
04:23PM 45.6800 8.6900 322° Northwest 180 207 3,100 1,800 Climbing FlightAware
04:24PM 45.7000 8.6670 321° Northwest 188 216 4,000 1,860 Climbing FlightAware
04:24PM 45.7110 8.6570 328° Northwest 188 216 4,500 1,920 Climbing FlightAware
04:24PM 45.7180 8.6540 343° North 188 216 4,800 1,920 Climbing FlightAware
04:25PM 45.7410 8.6710 27° Northeast 190 219 5,800 1,680 Climbing FlightAware
04:25PM 45.7450 8.6880 71° East 198 228 6,100 1,020 Climbing FlightAware
04:25PM 45.7340 8.7310 110° East 232 267 6,600 1,080 Climbing FlightAware
04:26PM 45.7190 8.7780 115° Southeast 274 315 7,200 1,800 Climbing FlightAware
04:26PM 45.7070 8.8190 113° Southeast 284 327 8,300 2,700 Climbing FlightAware
04:27PM 45.6990 8.8470 112° Southeast 287 330 9,000 2,280 Climbing FlightAware
04:27PM 45.6770 8.9170 114° Southeast 311 358 10,400 1,500 Climbing FlightAware
04:28PM 45.6500 9.0090 113° Southeast 357 411 11,200 1,860 Climbing FlightAware
04:29PM 45.6340 9.0910 106° East 358 412 12,900 2,580 Climbing FlightAware
04:29PM 45.6210 9.1640 104° East 363 418 14,000 1,620 Climbing FlightAware
04:30PM 45.6000 9.2790 105° East 393 452 15,100 1,260 Climbing FlightAware
04:31PM 45.5820 9.3830 104° East 418 481 15,900 1,320 Climbing FlightAware
04:31PM 45.5570 9.5190 105° East 436 502 17,100 1,380 Climbing FlightAware
04:32PM 45.5390 9.6320 103° East 448 516 18,000 2,160 Climbing FlightAware
04:33PM 45.5200 9.7460 103° East 433 498 20,000 2,820 Climbing FlightAware
04:33PM 45.5000 9.8670 103° East 418 481 22,000 2,040 Climbing FlightAware
04:34PM 45.4820 9.9760 103° East 426 490 22,900 1,320 Climbing FlightAware
04:35PM 45.4610 10.0990 104° East 436 502 23,900 1,440 Climbing FlightAware
04:36PM 45.4430 10.2180 102° East 436 502 25,000 1,380 Climbing FlightAware
04:36PM 45.4270 10.3280 102° East 442 509 25,800 1,020 Climbing FlightAware
04:37PM 45.4080 10.4570 102° East 452 520 26,500 1,080 Climbing FlightAware
04:38PM 45.3900 10.5760 102° East 455 524 27,400 1,200 Climbing FlightAware
04:38PM 45.3700 10.7100 102° East 462 532 28,200 1,020 Climbing FlightAware
04:39PM 45.3530 10.8250 102° East 465 535 28,900 1,020 Climbing FlightAware
04:40PM 45.3370 10.9300 102° East 469 540 29,500 1,020 Climbing FlightAware
04:40PM 45.3130 11.0840 102° East 470 541 30,400 1,200 Climbing FlightAware
04:41PM 45.2920 11.2020 104° East 469 540 31,300 1,440 Climbing FlightAware
04:42PM 45.2580 11.3020 116° Southeast 462 532 32,200 1,080 Climbing FlightAware
04:43PM 45.2060 11.4330 119° Southeast 463 533 32,900 900 Climbing FlightAware
04:43PM 45.1650 11.5370 119° Southeast 462 532 33,600 960 Climbing FlightAware
04:44PM 45.1180 11.6550 119° Southeast 459 528 34,300 720 Climbing FlightAware
04:45PM 45.0760 11.7600 120° Southeast 463 533 34,700 480 Climbing FlightAware
04:45PM 45.0360 11.8620 119° Southeast 463 533 35,000 180 Climbing FlightAware
04:46PM 44.9880 11.9820 119° Southeast 458 527 35,000  Level FlightAware
04:47PM 44.9450 12.0870 120° Southeast 462 532 35,000  Level FlightAware
04:47PM 44.8970 12.2060 120° Southeast 461 531 35,000  Level FlightAware
04:48PM 44.8560 12.3070 120° Southeast 460 529 35,000  Level FlightAware
04:49PM 44.8110 12.4180 120° Southeast 459 528 35,000  Level FlightAware
04:50PM 44.7680 12.5210 120° Southeast 459 528 35,000  Level FlightAware
04:50PM 44.7270 12.6230 119° Southeast 458 527 35,000  Level FlightAware
04:51PM 44.6780 12.7400 120° Southeast 458 527 35,000  Level FlightAware
04:52PM 44.6350 12.8440 120° Southeast 456 525 35,000  Level FlightAware
04:52PM 44.5880 12.9580 120° Southeast 458 527 35,000  Level FlightAware
04:53PM 44.5440 13.0630 120° Southeast 458 527 35,000  Level FlightAware
04:54PM 44.5010 13.1660 120° Southeast 460 529 35,000  Level FlightAware
04:54PM 44.4500 13.2850 121° Southeast 463 533 35,000  Level FlightAware
04:55PM 44.4070 13.3870 121° Southeast 470 541 35,000  Level FlightAware
04:56PM 44.3620 13.4940 120° Southeast 470 541 35,000  Level FlightAware
04:57PM 44.3120 13.6110 121° Southeast 470 541 35,000  Level FlightAware
04:57PM 44.2680 13.7140 121° Southeast 469 540 35,000  Level FlightAware
04:58PM 44.2180 13.8310 121° Southeast 469 540 35,000  Level FlightAware
04:59PM 44.1740 13.9330 121° Southeast 468 539 35,000  Level FlightAware
04:59PM 44.1320 14.0320 121° Southeast 468 539 35,000  Level FlightAware
05:00PM 44.0820 14.1460 121° Southeast 469 540 35,000  Level FlightAware
05:01PM 44.0320 14.2610 121° Southeast 468 539 35,000  Level FlightAware
05:01PM 43.9850 14.3680 121° Southeast 469 540 35,000  Level FlightAware
05:02PM 43.9340 14.4840 121° Southeast 468 539 35,000  Level FlightAware
05:03PM 43.8930 14.5780 121° Southeast 468 539 35,000  Level FlightAware
05:04PM 43.8460 14.6840 122° Southeast 467 537 35,000  Level FlightAware
05:04PM 43.7960 14.7970 121° Southeast 468 539 35,000  Level FlightAware
05:05PM 43.7490 14.9030 122° Southeast 468 539 35,000  Level FlightAware
05:06PM 43.6980 15.0160 122° Southeast 468 539 35,000  Level FlightAware
05:06PM 43.6560 15.1110 121° Southeast 470 541 35,000  Level FlightAware
05:07PM 43.5990 15.2370 122° Southeast 466 536 35,000  Level FlightAware
05:08PM 43.5540 15.3360 122° Southeast 465 535 35,000  Level FlightAware
05:08PM 43.5070 15.4400 122° Southeast 466 536 35,000  Level FlightAware
05:09PM 43.4560 15.5530 122° Southeast 465 535 35,000  Level FlightAware
05:10PM 43.4080 15.6560 123° Southeast 464 534 35,000  Level FlightAware
05:11PM 43.3580 15.7670 122° Southeast 464 534 35,000  Level FlightAware
05:11PM 43.3100 15.8690 123° Southeast 464 534 35,000  Level FlightAware
05:12PM 43.2650 15.9690 122° Southeast 466 536 35,000  Level FlightAware
05:13PM 43.2130 16.0800 123° Southeast 466 536 35,000  Level FlightAware
05:13PM 43.1650 16.1820 123° Southeast 468 539 35,000  Level FlightAware
05:14PM 43.1120 16.2980 122° Southeast 474 545 35,000  Level FlightAware
05:15PM 43.0580 16.4110 123° Southeast 475 547 35,000  Level FlightAware
05:15PM 43.0110 16.5120 122° Southeast 477 549 35,000  Level FlightAware
05:16PM 42.9630 16.6120 123° Southeast 477 549 35,000  Level FlightAware
05:17PM 42.9100 16.7060 128° Southeast 478 550 35,000  Level FlightAware
05:18PM 42.8480 16.8170 127° Southeast 478 550 35,000  Level FlightAware
05:18PM 42.7940 16.9130 127° Southeast 478 550 35,000  Level FlightAware
05:19PM 42.7540 16.9840 127° Southeast 478 550 35,000  Level FlightAware
05:19PM 42.6930 17.0910 128° Southeast 479 551 35,000  Level FlightAware
05:20PM 42.6400 17.1850 127° Southeast 478 550 35,000  Level FlightAware
05:21PM 42.5850 17.2820 128° Southeast 476 548 35,000  Level FlightAware
05:21PM 42.5320 17.3730 128° Southeast 476 548 35,000  Level FlightAware
05:22PM 42.4700 17.4800 128° Southeast 478 550 35,000  Level FlightAware
05:23PM 42.4090 17.5870 128° Southeast 476 548 35,000  Level FlightAware
05:24PM 42.3540 17.6820 128° Southeast 476 548 35,000  Level FlightAware
05:24PM 42.2920 17.7890 128° Southeast 476 548 35,000  Level FlightAware
05:25PM 42.2360 17.8850 128° Southeast 481 554 35,000  Level FlightAware
05:26PM 42.1810 17.9790 128° Southeast 480 552 35,000  Level FlightAware
05:26PM 42.1210 18.0820 128° Southeast 481 554 35,000  Level FlightAware
05:27PM 42.0650 18.1770 128° Southeast 480 552 35,000  Level FlightAware
05:28PM 42.0010 18.2850 129° Southeast 481 554 35,000  Level FlightAware
05:29PM 41.9470 18.3770 128° Southeast 481 554 35,000  Level FlightAware
05:29PM 41.8910 18.4710 129° Southeast 482 555 35,000  Level FlightAware
05:30PM 41.8290 18.5730 129° Southeast 486 559 35,000  Level FlightAware
05:31PM 41.7720 18.6690 129° Southeast 488 562 35,000  Level FlightAware
05:31PM 41.7150 18.7640 129° Southeast 490 564 35,000  Level FlightAware
05:32PM 41.6520 18.8680 129° Southeast 492 566 35,000  Level FlightAware
05:33PM 41.5940 18.9650 129° Southeast 495 570 35,000  Level FlightAware
05:33PM 41.5300 19.0710 129° Southeast 494 568 35,000  Level FlightAware
05:34PM 41.4810 19.1510 129° Southeast 495 570 35,000  Level FlightAware
05:35PM 41.4140 19.2620 129° Southeast 495 570 35,000  Level FlightAware
05:36PM 41.3480 19.3700 129° Southeast 496 571 35,000  Level FlightAware
05:36PM 41.2910 19.4620 129° Southeast 495 570 35,000  Level FlightAware
05:37PM 41.2320 19.5580 129° Southeast 496 571 35,000  Level FlightAware
05:38PM 41.1670 19.6620 130° Southeast 496 571 35,000  Level FlightAware
05:38PM 41.1080 19.7570 129° Southeast 498 573 35,000  Level FlightAware
05:39PM 41.0410 19.8650 129° Southeast 499 574 35,000  Level FlightAware
05:40PM 40.9810 19.9610 130° Southeast 499 574 35,000  Level FlightAware
05:40PM 40.9240 20.0530 129° Southeast 499 574 35,000  Level FlightAware
05:41PM 40.8590 20.1560 130° Southeast 498 573 35,000  Level FlightAware
05:42PM 40.8000 20.2500 130° Southeast 497 572 35,000  Level FlightAware
05:43PM 40.7320 20.3580 130° Southeast 497 572 35,000  Level FlightAware
05:43PM 40.6780 20.4430 130° Southeast 491 565 35,000  Level FlightAware
05:44PM 40.6220 20.5310 130° Southeast 491 565 35,000  Level FlightAware
05:45PM 40.5540 20.6370 130° Southeast 497 572 35,000  Level FlightAware
05:45PM 40.4930 20.7330 130° Southeast 499 574 35,000  Level FlightAware
05:46PM 40.4260 20.8380 130° Southeast 499 574 35,000  Level FlightAware
05:47PM 40.3670 20.9270 131° Southeast 496 571 35,000  Level FlightAware
05:47PM 40.2990 21.0140 136° Southeast 507 583 35,000 60 Level FlightAware
05:48PM 40.2180 21.1030 140° Southeast 510 587 35,100  Climbing FlightAware
05:49PM 40.1470 21.1830 139° Southeast 510 587 35,000 -120 Descending FlightAware
05:49PM 40.0730 21.2640 140° Southeast 510 587 35,000  Level FlightAware
05:50PM 39.9930 21.3530 140° Southeast 510 587 35,000  Level FlightAware
05:51PM 39.9210 21.4320 140° Southeast 510 587 35,000  Level FlightAware
05:52PM 39.8420 21.5190 140° Southeast 505 581 35,000  Level FlightAware
05:52PM 39.7660 21.6020 140° Southeast 506 582 35,000  Level FlightAware
05:53PM 39.6920 21.6830 140° Southeast 508 585 35,000  Level FlightAware
05:54PM 39.6110 21.7700 140° Southeast 509 586 35,000  Level FlightAware
05:54PM 39.5290 21.8590 140° Southeast 511 588 35,000  Level FlightAware
05:55PM 39.4550 21.9400 140° Southeast 511 588 35,000  Level FlightAware
05:56PM 39.3730 22.0280 140° Southeast 519 597 35,000  Level FlightAware
05:57PM 39.2980 22.1080 140° Southeast 521 600 35,000  Level FlightAware
05:57PM 39.2240 22.1870 140° Southeast 520 598 35,000  Level FlightAware
05:58PM 39.1410 22.2770 140° Southeast 519 597 35,000  Level FlightAware
05:59PM 39.0650 22.3570 141° Southeast 522 601 35,000  Level FlightAware
05:59PM 38.9830 22.4450 140° Southeast 521 600 35,000  Level FlightAware
06:00PM 38.9070 22.5250 141° Southeast 525 604 35,000 60 Level FlightAware
06:01PM 38.8300 22.6060 141° Southeast 527 606 35,100  Climbing FlightAware
06:01PM 38.7590 22.6810 141° Southeast 529 609 35,000 -120 Descending FlightAware
06:02PM 38.6630 22.7810 141° Southeast 535 616 35,000  Level FlightAware
06:03PM 38.5880 22.8600 141° Southeast 535 616 35,000  Level FlightAware
06:04PM 38.4990 22.9530 141° Southeast 535 616 35,000  Level FlightAware
06:04PM 38.4220 23.0330 141° Southeast 536 617 35,000  Level FlightAware
06:05PM 38.3450 23.1120 141° Southeast 536 617 35,000  Level FlightAware
06:06PM 38.2600 23.2000 141° Southeast 537 618 35,000  Level FlightAware
06:06PM 38.1820 23.2800 141° Southeast 538 619 35,000  Level FlightAware
06:07PM 38.0940 23.3710 141° Southeast 538 619 35,000  Level FlightAware
06:08PM 38.0170 23.4500 141° Southeast 539 620 35,000  Level FlightAware
06:08PM 37.9390 23.5300 141° Southeast 540 621 35,000  Level FlightAware
06:09PM 37.8520 23.6180 141° Southeast 539 620 35,000  Level FlightAware
06:10PM 37.7730 23.6980 141° Southeast 537 618 35,000  Level FlightAware
06:11PM 37.6860 23.7870 141° Southeast 539 620 35,000  Level FlightAware
06:11PM 37.6080 23.8650 142° Southeast 539 620 35,000  Level FlightAware
06:12PM 37.5300 23.9440 141° Southeast 540 621 35,000 60 Level FlightAware
06:13PM 37.4430 24.0310 142° Southeast 543 625 35,100  Climbing FlightAware
06:13PM 37.3630 24.1110 142° Southeast 543 625 35,000 -120 Descending FlightAware
06:14PM 37.2740 24.2000 141° Southeast 544 626 35,000  Level FlightAware
06:15PM 37.1950 24.2780 142° Southeast 544 626 35,000  Level FlightAware
06:15PM 37.1070 24.3660 141° Southeast 541 623 35,000  Level FlightAware
06:16PM 37.0290 24.4430 142° Southeast 542 624 35,000  Level FlightAware
06:17PM 36.9400 24.5310 142° Southeast 545 627 35,000  Level FlightAware
06:18PM 36.8590 24.6100 142° Southeast 547 629 35,000  Level FlightAware
06:18PM 36.7780 24.6900 142° Southeast 546 628 35,000  Level FlightAware
06:19PM 36.6900 24.7760 142° Southeast 546 628 35,000  Level FlightAware
06:20PM 36.6110 24.8530 142° Southeast 546 628 35,000  Level FlightAware
06:20PM 36.5190 24.9420 142° Southeast 545 627 35,000  Level FlightAware
06:21PM 36.4410 25.0180 142° Southeast 547 629 35,000  Level FlightAware
06:22PM 36.3610 25.0950 142° Southeast 547 629 35,000  Level FlightAware
06:22PM 36.2760 25.1770 142° Southeast 547 629 35,000  Level FlightAware
06:23PM 36.1930 25.2570 142° Southeast 547 629 35,000  Level FlightAware
06:24PM 36.1160 25.3310 142° Southeast 545 627 35,000  Level FlightAware
06:25PM 36.0250 25.4180 142° Southeast 548 631 35,000  Level FlightAware
06:25PM 35.9460 25.4940 142° Southeast 547 629 35,000  Level FlightAware
06:26PM 35.8540 25.5810 143° Southeast 546 628 35,000  Level FlightAware
06:27PM 35.7750 25.6560 142° Southeast 546 628 35,000  Level FlightAware
06:27PM 35.6850 25.7410 142° Southeast 549 632 35,000  Level FlightAware
06:28PM 35.6040 25.8170 143° Southeast 549 632 35,000  Level FlightAware
06:29PM 35.5230 25.8930 143° Southeast 551 634 35,000 60 Level FlightAware
06:29PM 35.4310 25.9800 142° Southeast 550 633 35,100 60 Climbing FlightAware
06:30PM 35.3510 26.0550 143° Southeast 548 631 35,100 -120 Level FlightAware
06:31PM 35.2690 26.1310 143° Southeast 545 627 35,000 -120 Descending FlightAware
06:32PM 35.1810 26.2130 143° Southeast 542 624 35,000  Level FlightAware
06:32PM 35.1020 26.2860 143° Southeast 543 625 35,000  Level FlightAware
06:33PM 35.0110 26.3710 143° Southeast 545 627 35,000  Level FlightAware
06:34PM 34.9300 26.4450 143° Southeast 542 624 35,000  Level FlightAware
06:34PM 34.8480 26.5210 143° Southeast 544 626 35,000  Level FlightAware
06:35PM 34.7580 26.6030 143° Southeast 544 626 35,000  Level FlightAware
06:36PM 34.6530 26.7010 142° Southeast 547 629 35,000  Level FlightAware
06:36PM 34.6020 26.7490 142° Southeast 547 629 35,000  Level FlightAware
06:37PM 34.5340 26.8130 142° Southeast 547 629 35,000  Level FlightAware
06:38PM 34.4500 26.8940 142° Southeast 547 629 35,000  Level FlightAware
06:39PM 34.3820 26.9580 142° Southeast 547 629 35,000  Level FlightAware
06:39PM 34.3140 27.0220 142° Southeast 547 629 35,000  Level FlightAware
06:40PM 34.2460 27.0860 142° Southeast 547 629 35,000  Level FlightAware
06:41PM 34.1610 27.1660 142° Southeast 547 629 35,000  Level FlightAware
06:41PM 34.0940 27.2300 142° Southeast 547 629 35,000  Level FlightAware
06:42PM 34.0260 27.2940 142° Southeast 547 629 35,000  Level FlightAware
06:43PM 33.9580 27.3580 142° Southeast 547 629 35,000  Level FlightAware
06:43PM 33.8900 27.4220 142° Southeast 547 629 35,000  Level FlightAware
06:44PM 33.8050 27.5020 142° Southeast 547 629 35,000  Level FlightAware
06:45PM 33.7380 27.5650 142° Southeast 547 629 35,000 -120 Level FlightAware
06:48PM 33.6539 27.9202 106° East  Level Estimated
06:49PM 33.6207 28.0593 106° East  Level Estimated
06:50PM 33.5873 28.1982 106° East  Level Estimated
06:51PM 33.5537 28.3371 106° East  Level Estimated
06:52PM 33.5200 28.4759 106° East  Level Estimated
06:53PM 33.4861 28.6145 106° East  Level Estimated
06:54PM 33.4521 28.7531 106° East  Level Estimated
06:55PM 33.4179 28.8915 106° East  Level Estimated
06:56PM 33.3836 29.0299 107° East  Level Estimated
06:57PM 33.3491 29.1681 107° East  Level Estimated
06:58PM 33.3144 29.3062 107° East  Level Estimated
06:59PM 33.2797 29.4442 107° East  Level Estimated
07:00PM 33.2447 29.5821 107° East  Level Estimated
07:01PM 33.2096 29.7199 107° East  Level Estimated
07:02PM 33.1744 29.8575 107° East  Level Estimated
07:03PM 33.1390 29.9951 107° East  Level Estimated
07:04PM 33.1034 30.1325 107° East  Level Estimated
07:05PM 33.0677 30.2699 107° East  Level Estimated
07:06PM 33.0319 30.4071 107° East  Level Estimated
07:07PM 32.9959 30.5442 107° East  Level Estimated
07:08PM 32.9597 30.6812 107° East  Level Estimated
07:09PM 32.9234 30.8181 107° East  Level Estimated
07:10PM 32.8870 30.9549 108° East  Level Estimated
07:11PM 32.8504 31.0916 108° East  Level Estimated
07:12PM 32.8136 31.2281 108° East  Level Estimated
07:13PM 32.7767 31.3646 108° East  Level Estimated
07:14PM 32.7397 31.5009 108° East  Level Estimated
07:15PM 32.7025 31.6371 108° East  Level Estimated
07:16PM 32.6651 31.7732 108° East  Level Estimated
07:17PM 32.6277 31.9092 108° East  Level Estimated
07:18PM 32.5900 32.0451 108° East  Level Estimated
07:19PM 32.5522 32.1808 108° East  Level Estimated
07:20PM 32.5143 32.3164 108° East  Level Estimated
07:21PM 32.4763 32.4520 108° East  Level Estimated
07:22PM 32.4380 32.5874 108° East  Level Estimated
07:23PM 32.3997 32.7227 109° East  Level Estimated
07:24PM 32.3612 32.8579 109° East  Level Estimated
07:25PM 32.3225 32.9929 109° East  Level Estimated
07:26PM 32.2837 33.1279 109° East  Level Estimated
07:27PM 32.2448 33.2627 109° East  Level Estimated
07:28PM 32.2057 33.3974 109° East  Level Estimated
07:29PM 32.1665 33.5321 109° East  Level Estimated
07:30PM 32.1272 33.6665 109° East  Level Estimated
07:31PM 32.0877 33.8009 109° East  Level Estimated
07:32PM 32.0480 33.9352 109° East  Level Estimated
07:33PM 32.0082 34.0693 109° East  Level Estimated
07:34PM 31.9683 34.2033 109° East  Level Estimated
07:35PM 31.9282 34.3372 109° East  Level Estimated
07:36PM 31.8880 34.4710 109° East  Level Estimated
07:37PM 31.8477 34.6047 110° East  Level Estimated
07:38PM 31.8072 34.7383 110° East  Level Estimated
07:39PM 31.7665 34.8717 110° East  Level Estimated
07:40PM 31.7258 35.0050 110° East  Level Estimated
07:41PM 31.6849 35.1382 110° East  Level Estimated
07:42PM 31.6438 35.2713 110° East  Level Estimated
07:43PM 31.6026 35.4043 110° East  Level Estimated
07:44PM 31.5613 35.5371 110° East  Level Estimated
07:45PM 31.5199 35.6698 110° East  Level Estimated
07:46PM 31.4783 35.8025 110° East  Level Estimated
07:47PM 31.4365 35.9350 110° East  Level Estimated
07:48PM 31.3947 36.0673 110° East  Level Estimated
07:49PM 31.3527 36.1996 110° East  Level Estimated
07:50PM 31.3105 36.3317 110° East  Level Estimated
07:51PM 31.2683 36.4638 111° Southeast  Level Estimated
07:52PM 31.2258 36.5957 111° Southeast  Level Estimated
07:53PM 31.1833 36.7275 111° Southeast  Level Estimated
07:54PM 31.1406 36.8591 111° Southeast  Level Estimated
07:55PM 31.0978 36.9907 111° Southeast  Level Estimated
07:56PM 31.0549 37.1221 111° Southeast  Level Estimated
07:57PM 31.0118 37.2534 111° Southeast  Level Estimated
07:58PM 30.9686 37.3846 111° Southeast  Level Estimated
07:59PM 30.9252 37.5157 111° Southeast  Level Estimated
08:00PM 30.8818 37.6466 111° Southeast  Level Estimated
08:01PM 30.8382 37.7775 111° Southeast  Level Estimated
08:02PM 30.7944 37.9082 111° Southeast  Level Estimated
08:03PM 30.7506 38.0388 111° Southeast  Level Estimated
08:04PM 30.7066 38.1693 111° Southeast  Level Estimated
08:05PM 30.6624 38.2996 111° Southeast  Level Estimated
08:06PM 30.6182 38.4299 112° Southeast  Level Estimated
08:07PM 30.5738 38.5600 112° Southeast  Level Estimated
08:08PM 30.5293 38.6900 112° Southeast  Level Estimated
08:09PM 30.4846 38.8199 112° Southeast  Level Estimated
08:10PM 30.4398 38.9496 112° Southeast  Level Estimated
08:11PM 30.3949 39.0793 112° Southeast  Level Estimated
08:12PM 30.3499 39.2088 112° Southeast  Level Estimated
08:13PM 30.3047 39.3382 112° Southeast  Level Estimated
08:14PM 30.2595 39.4675 112° Southeast  Level Estimated
08:15PM 30.2140 39.5967 112° Southeast  Level Estimated
08:16PM 30.1685 39.7257 112° Southeast  Level Estimated
08:17PM 30.1228 39.8546 112° Southeast  Level Estimated
08:18PM 30.0770 39.9835 112° Southeast  Level Estimated
08:19PM 30.0311 40.1121 112° Southeast  Level Estimated
08:20PM 29.9851 40.2407 112° Southeast  Level Estimated
08:21PM 29.9389 40.3692 112° Southeast  Level Estimated
08:22PM 29.8926 40.4975 113° Southeast  Level Estimated
08:23PM 29.8462 40.6257 113° Southeast  Level Estimated
08:24PM 29.7997 40.7538 113° Southeast  Level Estimated
08:25PM 29.7530 40.8818 113° Southeast  Level Estimated
08:26PM 29.7062 41.0096 113° Southeast  Level Estimated
08:27PM 29.6593 41.1374 113° Southeast  Level Estimated
08:28PM 29.6123 41.2650 113° Southeast  Level Estimated
08:29PM 29.5651 41.3925 113° Southeast  Level Estimated
08:30PM 29.5179 41.5199 113° Southeast  Level Estimated
08:31PM 29.4704 41.6471 113° Southeast  Level Estimated
08:32PM 29.4229 41.7743 113° Southeast  Level Estimated
08:33PM 29.3753 41.9013 113° Southeast  Level Estimated
08:34PM 29.3275 42.0282 113° Southeast  Level Estimated
08:35PM 29.2796 42.1550 113° Southeast  Level Estimated
08:36PM 29.2316 42.2816 113° Southeast  Level Estimated
08:37PM 29.1835 42.4082 114° Southeast  Level Estimated
08:38PM 29.1353 42.5346 114° Southeast  Level Estimated
08:39PM 29.0870 42.6609 114° Southeast  Level Estimated
08:40PM 29.0385 42.7871 114° Southeast  Level Estimated
08:41PM 28.9899 42.9132 114° Southeast  Level Estimated
08:42PM 28.9412 43.0391 114° Southeast  Level Estimated
08:43PM 28.8924 43.1649 114° Southeast  Level Estimated
08:44PM 28.8434 43.2906 114° Southeast  Level Estimated
08:45PM 28.7944 43.4162 114° Southeast  Level Estimated
08:46PM 28.7452 43.5417 114° Southeast  Level Estimated
08:47PM 28.6959 43.6671 114° Southeast  Level Estimated
08:48PM 28.6465 43.7923 114° Southeast  Level Estimated
08:49PM 28.5970 43.9174 114° Southeast  Level Estimated
08:50PM 28.5473 44.0425 114° Southeast  Level Estimated
08:51PM 28.4976 44.1674 114° Southeast  Level Estimated
08:52PM 28.4477 44.2921 114° Southeast  Level Estimated
08:53PM 28.3978 44.4168 114° Southeast  Level Estimated
08:54PM 28.3477 44.5413 115° Southeast  Level Estimated
08:55PM 28.2975 44.6657 115° Southeast  Level Estimated
08:56PM 28.2472 44.7900 115° Southeast  Level Estimated
08:57PM 28.1967 44.9142 115° Southeast  Level Estimated
08:58PM 28.1462 45.0383 115° Southeast  Level Estimated
08:59PM 28.0955 45.1622 115° Southeast  Level Estimated
09:00PM 28.0448 45.2860 115° Southeast  Level Estimated
09:01PM 27.9939 45.4098 115° Southeast  Level Estimated
09:02PM 27.9429 45.5334 115° Southeast  Level Estimated
09:03PM 27.8918 45.6568 115° Southeast  Level Estimated
09:04PM 27.8406 45.7802 115° Southeast  Level Estimated
09:05PM 27.7893 45.9034 115° Southeast  Level Estimated
09:06PM 27.7379 46.0266 115° Southeast  Level Estimated
09:07PM 27.6864 46.1496 115° Southeast  Level Estimated
09:08PM 27.6347 46.2725 115° Southeast  Level Estimated
09:09PM 27.5830 46.3953 115° Southeast  Level Estimated
09:10PM 27.5311 46.5179 115° Southeast  Level Estimated
09:11PM 27.4792 46.6405 116° Southeast  Level Estimated
09:12PM 27.4271 46.7629 116° Southeast  Level Estimated
09:13PM 27.3749 46.8852 116° Southeast  Level Estimated
09:14PM 27.3226 47.0074 116° Southeast  Level Estimated
09:15PM 27.2702 47.1295 116° Southeast  Level Estimated
09:16PM 27.2177 47.2515 116° Southeast  Level Estimated
09:17PM 27.1651 47.3733 116° Southeast  Level Estimated
09:18PM 27.1124 47.4951 116° Southeast  Level Estimated
09:19PM 27.0596 47.6167 116° Southeast  Level Estimated
09:20PM 27.0067 47.7382 116° Southeast  Level Estimated
09:21PM 26.9537 47.8596 116° Southeast  Level Estimated
09:22PM 26.9005 47.9809 116° Southeast  Level Estimated
09:23PM 26.8473 48.1021 116° Southeast  Level Estimated
09:24PM 26.7940 48.2231 116° Southeast  Level Estimated
09:25PM 26.7405 48.3441 116° Southeast  Level Estimated
09:26PM 26.6870 48.4649 116° Southeast  Level Estimated
09:27PM 26.6334 48.5856 116° Southeast  Level Estimated
09:28PM 26.5796 48.7062 116° Southeast  Level Estimated
09:29PM 26.5258 48.8267 117° Southeast  Level Estimated
09:30PM 26.4718 48.9471 117° Southeast  Level Estimated
09:31PM 26.4178 49.0674 117° Southeast  Level Estimated
09:32PM 26.3636 49.1875 117° Southeast  Level Estimated
09:32PM 25.2650 50.8110 117° Southeast 397 457 15,200  Level FlightAware
09:33PM 26.3094 49.3075 117° Southeast  Level Estimated
09:33PM 25.2660 50.9050 89° East 391 450 13,600  Level FlightAware
09:34PM 25.2670 50.9790 89° East 382 440 12,400 -1,740 Descending FlightAware
09:34PM 25.2680 51.0580 89° East 363 418 11,300 -1,200 Descending FlightAware
09:35PM 25.2690 51.1390 89° East 329 379 10,700 -960 Descending FlightAware
09:36PM 25.2700 51.2020 89° East 311 358 10,000 -1,200 Descending FlightAware
09:36PM 25.2700 51.2350 90° East 307 353 9,500 -1,620 Descending FlightAware
09:36PM 25.2670 51.2730 95° East 303 349 8,800 -1,500 Descending FlightAware
09:37PM 25.2580 51.2910 119° Southeast 294 338 8,500 -900 Descending FlightAware
09:37PM 25.2350 51.3210 130° Southeast 287 330 8,200 -780 Descending FlightAware
09:38PM 25.2080 51.3560 130° Southeast 276 318 7,800 -1,320 Descending FlightAware
09:38PM 25.1880 51.3820 130° Southeast 282 325 7,000 -1,860 Descending FlightAware
09:39PM 25.1620 51.4170 129° Southeast 283 326 6,100 -1,500 Descending FlightAware
09:39PM 25.1380 51.4490 130° Southeast 284 327 5,500 -1,440 Descending FlightAware
09:39PM 25.1180 51.4760 129° Southeast 281 323 4,800 -1,320 Descending FlightAware
09:40PM 25.0900 51.5110 131° Southeast 272 313 4,300 -900 Descending FlightAware
09:40PM 25.0710 51.5360 130° Southeast 253 291 4,000 -780 Descending FlightAware
09:41PM 25.0470 51.5650 132° Southeast 244 281 3,600 -720 Descending FlightAware
09:41PM 25.0330 51.5950 117° Southeast 228 262 3,300 -600 Descending FlightAware
09:42PM 25.0310 51.6360 93° East 207 238 3,000 -600 Descending FlightAware
09:42PM 25.0390 51.6550 65° Northeast 190 219 2,800 -240 Descending FlightAware
09:43PM 25.0800 51.6450 348° North 170 196 2,700 -180 Descending FlightAware
09:44PM 25.1000 51.6360 338° Northwest 161 185 2,600 -240 Descending FlightAware
09:44PM 25.1200 51.6270 338° Northwest 160 184 2,500 -480 Descending FlightAware
09:45PM 25.1710 51.6040 338° Northwest 145 167 1,800 -720 Descending FlightAware
09:46PM 25.1920 51.5960 341° North 125 144 1,200 -840 Descending FlightAware
09:47PM 25.2090 51.5880 337° Northwest 124 143 900 -660 Descending FlightAware
09:47PM 25.2220 51.5820 337° Northwest 120 138 600 -480 Descending FlightAware
09:48PM 25.2440 51.5720 338° Northwest 123 142 400 -300 Descending FlightAware
09:50PM 25.2611 51.5651 340° North  Level Estimated
09:51PM 25.2611 51.5651 324° Northwest  Level Estimated
09:52PM 25.2611 51.5651 324° Northwest  Level Estimated
09:53PM 25.2611 51.5651 324° Northwest  Level Estimated
09:54PM 25.2611 51.5651 324° Northwest  Level Estimated
09:55PM 25.2611 51.5651 324° Northwest  Level Estimated
09:56PM 25.2611 51.5651 324° Northwest  Level Estimated
09:57PM 25.2611 51.5651 324° Northwest  Level Estimated
09:58PM 25.2611 51.5651 324° Northwest  Level Estimated
09:59PM 25.2611 51.5651 324° Northwest  Level Estimated
10:00PM 25.2611 51.5651 324° Northwest  Level Estimated
10:01PM 25.2611 51.5651 324° Northwest  Level Estimated
10:02PM 25.2611 51.5651 324° Northwest  Level Estimated
10:03PM 25.2611 51.5651 324° Northwest  Level Estimated
10:04PM 25.2611 51.5651 324° Northwest  Level Estimated
10:05PM 25.2611 51.5651 324° Northwest  Level Estimated
10:06PM 25.2611 51.5651 324° Northwest  Level Estimated
10:07PM 25.2611 51.5651 324° Northwest  Level Estimated
10:08PM 25.2611 51.5651 324° Northwest  Level Estimated
10:09PM 25.2611 51.5651 324° Northwest  Level Estimated